sensor_id;sensor_type;location;lat;lon;timestamp;P1;durP1;ratioP1;P2;durP2;ratioP2
71303;SDS011;59091;47.446;19.148;2023-12-20T00:01:15;50.47;;;18.50;;
71303;SDS011;59091;47.446;19.148;2023-12-20T00:03:41;43.10;;;19.00;;
71303;SDS011;59091;47.446;19.148;2023-12-20T00:06:06;45.17;;;18.95;;
71303;SDS011;59091;47.446;19.148;2023-12-20T00:08:32;46.63;;;18.25;;
71303;SDS011;59091;47.446;19.148;2023-12-20T00:10:57;42.08;;;17.80;;
71303;SDS011;59091;47.446;19.148;2023-12-20T00:13:23;41.75;;;18.00;;
71303;SDS011;59091;47.446;19.148;2023-12-20T00:15:48;45.08;;;17.80;;
71303;SDS011;59091;47.446;19.148;2023-12-20T00:18:13;42.28;;;17.67;;
71303;SDS011;59091;47.446;19.148;2023-12-20T00:20:39;43.67;;;17.38;;
71303;SDS011;59091;47.446;19.148;2023-12-20T00:23:04;45.00;;;17.50;;
71303;SDS011;59091;47.446;19.148;2023-12-20T00:25:30;45.60;;;16.17;;
71303;SDS011;59091;47.446;19.148;2023-12-20T00:27:55;48.80;;;17.88;;
71303;SDS011;59091;47.446;19.148;2023-12-20T00:30:21;37.75;;;16.13;;
71303;SDS011;59091;47.446;19.148;2023-12-20T00:32:46;45.25;;;17.42;;
71303;SDS011;59091;47.446;19.148;2023-12-20T00:35:15;46.22;;;15.75;;
71303;SDS011;59091;47.446;19.148;2023-12-20T00:37:41;40.03;;;16.30;;
71303;SDS011;59091;47.446;19.148;2023-12-20T00:40:08;41.53;;;16.70;;
71303;SDS011;59091;47.446;19.148;2023-12-20T00:42:33;41.63;;;17.30;;
71303;SDS011;59091;47.446;19.148;2023-12-20T00:44:59;43.03;;;16.58;;
71303;SDS011;59091;47.446;19.148;2023-12-20T00:47:25;44.08;;;17.33;;
71303;SDS011;59091;47.446;19.148;2023-12-20T00:49:51;40.33;;;16.13;;
71303;SDS011;59091;47.446;19.148;2023-12-20T00:52:16;44.42;;;17.17;;
71303;SDS011;59091;47.446;19.148;2023-12-20T00:54:47;45.17;;;18.27;;
71303;SDS011;59091;47.446;19.148;2023-12-20T00:57:12;47.05;;;17.70;;
71303;SDS011;59091;47.446;19.148;2023-12-20T00:59:37;49.83;;;17.75;;
71303;SDS011;59091;47.446;19.148;2023-12-20T01:02:03;43.60;;;18.52;;
71303;SDS011;59091;47.446;19.148;2023-12-20T01:04:28;43.15;;;18.52;;
71303;SDS011;59091;47.446;19.148;2023-12-20T01:06:54;48.65;;;19.00;;
71303;SDS011;59091;47.446;19.148;2023-12-20T01:09:19;47.78;;;18.75;;
71303;SDS011;59091;47.446;19.148;2023-12-20T01:11:45;43.22;;;18.50;;
71303;SDS011;59091;47.446;19.148;2023-12-20T01:14:13;55.22;;;19.35;;
71303;SDS011;59091;47.446;19.148;2023-12-20T01:16:39;55.33;;;19.42;;
71303;SDS011;59091;47.446;19.148;2023-12-20T01:19:04;54.95;;;19.75;;
71303;SDS011;59091;47.446;19.148;2023-12-20T01:21:29;51.47;;;19.30;;
71303;SDS011;59091;47.446;19.148;2023-12-20T01:23:55;57.83;;;19.83;;
71303;SDS011;59091;47.446;19.148;2023-12-20T01:26:20;54.15;;;19.80;;
71303;SDS011;59091;47.446;19.148;2023-12-20T01:28:46;62.55;;;21.92;;
71303;SDS011;59091;47.446;19.148;2023-12-20T01:31:11;59.33;;;21.30;;
71303;SDS011;59091;47.446;19.148;2023-12-20T01:33:36;69.43;;;21.77;;
71303;SDS011;59091;47.446;19.148;2023-12-20T01:36:02;58.47;;;21.10;;
71303;SDS011;59091;47.446;19.148;2023-12-20T01:38:28;53.17;;;21.05;;
71303;SDS011;59091;47.446;19.148;2023-12-20T01:40:54;60.58;;;20.77;;
71303;SDS011;59091;47.446;19.148;2023-12-20T01:43:19;64.07;;;21.80;;
71303;SDS011;59091;47.446;19.148;2023-12-20T01:45:45;65.90;;;21.80;;
71303;SDS011;59091;47.446;19.148;2023-12-20T01:48:11;54.15;;;22.15;;
71303;SDS011;59091;47.446;19.148;2023-12-20T01:50:37;68.53;;;22.58;;
71303;SDS011;59091;47.446;19.148;2023-12-20T01:53:03;63.40;;;22.95;;
71303;SDS011;59091;47.446;19.148;2023-12-20T01:55:31;68.97;;;23.13;;
71303;SDS011;59091;47.446;19.148;2023-12-20T01:57:58;56.65;;;23.45;;
71303;SDS011;59091;47.446;19.148;2023-12-20T02:00:24;75.68;;;23.55;;
71303;SDS011;59091;47.446;19.148;2023-12-20T02:02:52;72.32;;;24.60;;
71303;SDS011;59091;47.446;19.148;2023-12-20T02:05:20;65.25;;;23.40;;
71303;SDS011;59091;47.446;19.148;2023-12-20T02:07:46;64.57;;;23.55;;
71303;SDS011;59091;47.446;19.148;2023-12-20T02:10:12;64.78;;;23.10;;
71303;SDS011;59091;47.446;19.148;2023-12-20T02:12:38;76.40;;;24.40;;
71303;SDS011;59091;47.446;19.148;2023-12-20T02:15:03;62.42;;;23.05;;
71303;SDS011;59091;47.446;19.148;2023-12-20T02:17:30;64.93;;;25.02;;
71303;SDS011;59091;47.446;19.148;2023-12-20T02:19:56;61.55;;;25.77;;
71303;SDS011;59091;47.446;19.148;2023-12-20T02:22:22;60.78;;;24.38;;
71303;SDS011;59091;47.446;19.148;2023-12-20T02:24:47;63.50;;;25.75;;
71303;SDS011;59091;47.446;19.148;2023-12-20T02:27:13;66.10;;;25.98;;
71303;SDS011;59091;47.446;19.148;2023-12-20T02:29:40;64.07;;;26.63;;
71303;SDS011;59091;47.446;19.148;2023-12-20T02:32:05;59.38;;;26.05;;
71303;SDS011;59091;47.446;19.148;2023-12-20T02:34:31;68.35;;;26.77;;
71303;SDS011;59091;47.446;19.148;2023-12-20T02:36:56;61.47;;;25.73;;
71303;SDS011;59091;47.446;19.148;2023-12-20T02:39:22;60.40;;;26.02;;
71303;SDS011;59091;47.446;19.148;2023-12-20T02:41:48;78.97;;;28.15;;
71303;SDS011;59091;47.446;19.148;2023-12-20T02:44:13;65.00;;;27.50;;
71303;SDS011;59091;47.446;19.148;2023-12-20T02:46:39;61.90;;;25.88;;
71303;SDS011;59091;47.446;19.148;2023-12-20T02:49:05;61.35;;;26.80;;
71303;SDS011;59091;47.446;19.148;2023-12-20T02:51:31;68.95;;;26.60;;
71303;SDS011;59091;47.446;19.148;2023-12-20T02:53:56;63.13;;;26.40;;
71303;SDS011;59091;47.446;19.148;2023-12-20T02:56:22;58.00;;;26.00;;
71303;SDS011;59091;47.446;19.148;2023-12-20T02:58:47;84.05;;;26.83;;
71303;SDS011;59091;47.446;19.148;2023-12-20T03:01:13;65.22;;;28.10;;
71303;SDS011;59091;47.446;19.148;2023-12-20T03:03:38;60.92;;;26.98;;
71303;SDS011;59091;47.446;19.148;2023-12-20T03:06:04;60.60;;;27.33;;
71303;SDS011;59091;47.446;19.148;2023-12-20T03:08:29;61.83;;;26.73;;
71303;SDS011;59091;47.446;19.148;2023-12-20T03:10:55;59.15;;;26.48;;
71303;SDS011;59091;47.446;19.148;2023-12-20T03:13:20;63.83;;;24.58;;
71303;SDS011;59091;47.446;19.148;2023-12-20T03:15:46;53.38;;;24.85;;
71303;SDS011;59091;47.446;19.148;2023-12-20T03:18:11;60.13;;;24.52;;
71303;SDS011;59091;47.446;19.148;2023-12-20T03:20:37;58.38;;;24.92;;
71303;SDS011;59091;47.446;19.148;2023-12-20T03:23:02;60.28;;;23.50;;
71303;SDS011;59091;47.446;19.148;2023-12-20T03:25:28;58.42;;;24.92;;
71303;SDS011;59091;47.446;19.148;2023-12-20T03:27:54;68.65;;;25.00;;
71303;SDS011;59091;47.446;19.148;2023-12-20T03:30:19;59.22;;;24.23;;
71303;SDS011;59091;47.446;19.148;2023-12-20T03:32:45;58.88;;;25.63;;
71303;SDS011;59091;47.446;19.148;2023-12-20T03:35:11;60.92;;;25.88;;
71303;SDS011;59091;47.446;19.148;2023-12-20T03:37:37;59.10;;;25.15;;
71303;SDS011;59091;47.446;19.148;2023-12-20T03:40:02;63.25;;;26.10;;
71303;SDS011;59091;47.446;19.148;2023-12-20T03:42:28;72.70;;;26.55;;
71303;SDS011;59091;47.446;19.148;2023-12-20T03:44:54;66.25;;;25.77;;
71303;SDS011;59091;47.446;19.148;2023-12-20T03:47:19;58.75;;;25.38;;
71303;SDS011;59091;47.446;19.148;2023-12-20T03:49:44;63.53;;;25.77;;
71303;SDS011;59091;47.446;19.148;2023-12-20T03:52:10;67.00;;;26.48;;
71303;SDS011;59091;47.446;19.148;2023-12-20T03:54:35;70.13;;;26.50;;
71303;SDS011;59091;47.446;19.148;2023-12-20T03:57:01;70.93;;;23.83;;
71303;SDS011;59091;47.446;19.148;2023-12-20T03:59:26;57.28;;;23.60;;
71303;SDS011;59091;47.446;19.148;2023-12-20T04:01:52;52.53;;;23.52;;
71303;SDS011;59091;47.446;19.148;2023-12-20T04:04:17;58.15;;;23.60;;
71303;SDS011;59091;47.446;19.148;2023-12-20T04:06:43;57.00;;;23.98;;
71303;SDS011;59091;47.446;19.148;2023-12-20T04:09:08;59.25;;;24.00;;
71303;SDS011;59091;47.446;19.148;2023-12-20T04:11:34;68.38;;;24.35;;
71303;SDS011;59091;47.446;19.148;2023-12-20T04:14:00;64.57;;;24.58;;
71303;SDS011;59091;47.446;19.148;2023-12-20T04:16:25;54.88;;;23.00;;
71303;SDS011;59091;47.446;19.148;2023-12-20T04:18:51;68.15;;;23.45;;
71303;SDS011;59091;47.446;19.148;2023-12-20T04:21:17;58.38;;;23.73;;
71303;SDS011;59091;47.446;19.148;2023-12-20T04:23:43;56.28;;;22.63;;
71303;SDS011;59091;47.446;19.148;2023-12-20T04:26:08;59.03;;;23.98;;
71303;SDS011;59091;47.446;19.148;2023-12-20T04:28:34;65.50;;;24.15;;
71303;SDS011;59091;47.446;19.148;2023-12-20T04:31:00;57.92;;;23.23;;
71303;SDS011;59091;47.446;19.148;2023-12-20T04:33:25;56.80;;;22.70;;
71303;SDS011;59091;47.446;19.148;2023-12-20T04:35:50;63.58;;;23.17;;
71303;SDS011;59091;47.446;19.148;2023-12-20T04:38:16;56.42;;;23.50;;
71303;SDS011;59091;47.446;19.148;2023-12-20T04:40:41;62.97;;;22.40;;
71303;SDS011;59091;47.446;19.148;2023-12-20T04:43:07;55.63;;;22.73;;
71303;SDS011;59091;47.446;19.148;2023-12-20T04:45:34;53.50;;;22.60;;
71303;SDS011;59091;47.446;19.148;2023-12-20T04:47:59;53.58;;;22.90;;
71303;SDS011;59091;47.446;19.148;2023-12-20T04:50:25;54.28;;;21.00;;
71303;SDS011;59091;47.446;19.148;2023-12-20T04:52:51;58.55;;;23.27;;
71303;SDS011;59091;47.446;19.148;2023-12-20T04:55:17;62.20;;;23.05;;
71303;SDS011;59091;47.446;19.148;2023-12-20T04:57:42;58.78;;;23.45;;
71303;SDS011;59091;47.446;19.148;2023-12-20T05:00:08;58.30;;;22.88;;
71303;SDS011;59091;47.446;19.148;2023-12-20T05:02:34;56.83;;;22.98;;
71303;SDS011;59091;47.446;19.148;2023-12-20T05:05:00;58.63;;;22.77;;
71303;SDS011;59091;47.446;19.148;2023-12-20T05:07:26;56.83;;;22.63;;
71303;SDS011;59091;47.446;19.148;2023-12-20T05:09:51;54.55;;;22.80;;
71303;SDS011;59091;47.446;19.148;2023-12-20T05:12:16;60.03;;;23.02;;
71303;SDS011;59091;47.446;19.148;2023-12-20T05:14:42;56.33;;;22.92;;
71303;SDS011;59091;47.446;19.148;2023-12-20T05:17:07;58.92;;;23.73;;
71303;SDS011;59091;47.446;19.148;2023-12-20T05:19:33;49.83;;;21.50;;
71303;SDS011;59091;47.446;19.148;2023-12-20T05:22:00;52.95;;;23.48;;
71303;SDS011;59091;47.446;19.148;2023-12-20T05:24:27;57.55;;;23.60;;
71303;SDS011;59091;47.446;19.148;2023-12-20T05:26:52;54.65;;;24.60;;
71303;SDS011;59091;47.446;19.148;2023-12-20T05:29:18;51.95;;;22.65;;
71303;SDS011;59091;47.446;19.148;2023-12-20T05:31:43;58.60;;;23.35;;
71303;SDS011;59091;47.446;19.148;2023-12-20T05:34:08;61.90;;;25.10;;
71303;SDS011;59091;47.446;19.148;2023-12-20T05:36:34;57.33;;;21.75;;
71303;SDS011;59091;47.446;19.148;2023-12-20T05:39:00;58.45;;;24.25;;
71303;SDS011;59091;47.446;19.148;2023-12-20T05:41:25;57.58;;;25.20;;
71303;SDS011;59091;47.446;19.148;2023-12-20T05:43:51;71.57;;;24.15;;
71303;SDS011;59091;47.446;19.148;2023-12-20T05:46:16;55.95;;;24.13;;
71303;SDS011;59091;47.446;19.148;2023-12-20T05:48:41;57.17;;;24.55;;
71303;SDS011;59091;47.446;19.148;2023-12-20T05:51:07;56.40;;;24.38;;
71303;SDS011;59091;47.446;19.148;2023-12-20T05:53:33;68.75;;;25.33;;
71303;SDS011;59091;47.446;19.148;2023-12-20T05:55:58;56.88;;;24.23;;
71303;SDS011;59091;47.446;19.148;2023-12-20T05:58:24;62.88;;;25.70;;
71303;SDS011;59091;47.446;19.148;2023-12-20T06:00:50;57.50;;;23.98;;
71303;SDS011;59091;47.446;19.148;2023-12-20T06:03:15;64.10;;;25.52;;
71303;SDS011;59091;47.446;19.148;2023-12-20T06:05:41;63.85;;;26.30;;
71303;SDS011;59091;47.446;19.148;2023-12-20T06:08:06;77.60;;;25.10;;
71303;SDS011;59091;47.446;19.148;2023-12-20T06:10:31;58.88;;;24.45;;
71303;SDS011;59091;47.446;19.148;2023-12-20T06:12:57;66.50;;;26.42;;
71303;SDS011;59091;47.446;19.148;2023-12-20T06:15:23;64.75;;;26.20;;
71303;SDS011;59091;47.446;19.148;2023-12-20T06:17:49;60.25;;;25.02;;
71303;SDS011;59091;47.446;19.148;2023-12-20T06:20:15;57.63;;;24.85;;
71303;SDS011;59091;47.446;19.148;2023-12-20T06:22:40;54.08;;;23.98;;
71303;SDS011;59091;47.446;19.148;2023-12-20T06:25:06;62.97;;;24.58;;
71303;SDS011;59091;47.446;19.148;2023-12-20T06:27:32;59.13;;;23.05;;
71303;SDS011;59091;47.446;19.148;2023-12-20T06:29:57;54.85;;;24.40;;
71303;SDS011;59091;47.446;19.148;2023-12-20T06:32:23;55.70;;;23.50;;
71303;SDS011;59091;47.446;19.148;2023-12-20T06:34:49;56.83;;;24.38;;
71303;SDS011;59091;47.446;19.148;2023-12-20T06:37:15;77.25;;;24.55;;
71303;SDS011;59091;47.446;19.148;2023-12-20T06:39:40;68.15;;;25.95;;
71303;SDS011;59091;47.446;19.148;2023-12-20T06:42:06;62.90;;;24.55;;
71303;SDS011;59091;47.446;19.148;2023-12-20T06:44:31;71.22;;;25.83;;
71303;SDS011;59091;47.446;19.148;2023-12-20T06:46:57;60.15;;;24.67;;
71303;SDS011;59091;47.446;19.148;2023-12-20T06:49:23;74.32;;;25.17;;
71303;SDS011;59091;47.446;19.148;2023-12-20T06:51:48;67.82;;;25.02;;
71303;SDS011;59091;47.446;19.148;2023-12-20T06:54:14;59.50;;;24.75;;
71303;SDS011;59091;47.446;19.148;2023-12-20T06:56:39;70.32;;;24.35;;
71303;SDS011;59091;47.446;19.148;2023-12-20T06:59:06;65.72;;;24.92;;
71303;SDS011;59091;47.446;19.148;2023-12-20T07:01:31;60.67;;;24.20;;
71303;SDS011;59091;47.446;19.148;2023-12-20T07:03:56;70.03;;;24.83;;
71303;SDS011;59091;47.446;19.148;2023-12-20T07:06:22;64.75;;;25.25;;
71303;SDS011;59091;47.446;19.148;2023-12-20T07:08:47;63.10;;;24.55;;
71303;SDS011;59091;47.446;19.148;2023-12-20T07:11:13;61.85;;;25.98;;
71303;SDS011;59091;47.446;19.148;2023-12-20T07:13:39;70.22;;;27.73;;
71303;SDS011;59091;47.446;19.148;2023-12-20T07:16:04;81.95;;;25.42;;
71303;SDS011;59091;47.446;19.148;2023-12-20T07:18:30;79.68;;;26.98;;
71303;SDS011;59091;47.446;19.148;2023-12-20T07:20:55;67.80;;;25.85;;
71303;SDS011;59091;47.446;19.148;2023-12-20T07:23:20;70.93;;;26.52;;
71303;SDS011;59091;47.446;19.148;2023-12-20T07:25:46;62.10;;;25.92;;
71303;SDS011;59091;47.446;19.148;2023-12-20T07:28:12;67.22;;;25.35;;
71303;SDS011;59091;47.446;19.148;2023-12-20T07:30:38;62.63;;;23.75;;
71303;SDS011;59091;47.446;19.148;2023-12-20T07:33:03;57.08;;;24.75;;
71303;SDS011;59091;47.446;19.148;2023-12-20T07:35:29;64.82;;;26.45;;
71303;SDS011;59091;47.446;19.148;2023-12-20T07:37:55;61.80;;;25.00;;
71303;SDS011;59091;47.446;19.148;2023-12-20T07:40:20;70.50;;;27.15;;
71303;SDS011;59091;47.446;19.148;2023-12-20T07:42:45;68.57;;;26.67;;
71303;SDS011;59091;47.446;19.148;2023-12-20T07:45:11;66.50;;;26.85;;
71303;SDS011;59091;47.446;19.148;2023-12-20T07:47:37;69.57;;;26.38;;
71303;SDS011;59091;47.446;19.148;2023-12-20T07:50:02;68.38;;;26.02;;
71303;SDS011;59091;47.446;19.148;2023-12-20T07:52:29;69.18;;;26.52;;
71303;SDS011;59091;47.446;19.148;2023-12-20T07:54:54;76.60;;;27.15;;
71303;SDS011;59091;47.446;19.148;2023-12-20T07:57:20;83.20;;;27.85;;
71303;SDS011;59091;47.446;19.148;2023-12-20T07:59:46;74.28;;;28.10;;
71303;SDS011;59091;47.446;19.148;2023-12-20T08:02:11;78.90;;;28.35;;
71303;SDS011;59091;47.446;19.148;2023-12-20T08:04:37;90.22;;;27.55;;
71303;SDS011;59091;47.446;19.148;2023-12-20T08:07:03;69.13;;;27.35;;
71303;SDS011;59091;47.446;19.148;2023-12-20T08:09:28;76.15;;;29.25;;
71303;SDS011;59091;47.446;19.148;2023-12-20T08:11:54;74.50;;;28.88;;
71303;SDS011;59091;47.446;19.148;2023-12-20T08:14:20;72.05;;;27.70;;
71303;SDS011;59091;47.446;19.148;2023-12-20T08:16:45;74.00;;;28.52;;
71303;SDS011;59091;47.446;19.148;2023-12-20T08:19:11;69.97;;;27.45;;
71303;SDS011;59091;47.446;19.148;2023-12-20T08:21:36;74.68;;;27.23;;
71303;SDS011;59091;47.446;19.148;2023-12-20T08:24:01;75.22;;;28.50;;
71303;SDS011;59091;47.446;19.148;2023-12-20T08:26:27;86.00;;;28.60;;
71303;SDS011;59091;47.446;19.148;2023-12-20T08:28:53;83.85;;;29.75;;
71303;SDS011;59091;47.446;19.148;2023-12-20T08:31:19;77.93;;;30.05;;
71303;SDS011;59091;47.446;19.148;2023-12-20T08:33:44;84.95;;;30.10;;
71303;SDS011;59091;47.446;19.148;2023-12-20T08:36:11;83.50;;;29.48;;
71303;SDS011;59091;47.446;19.148;2023-12-20T08:38:36;78.18;;;29.10;;
71303;SDS011;59091;47.446;19.148;2023-12-20T08:41:02;80.45;;;30.40;;
71303;SDS011;59091;47.446;19.148;2023-12-20T08:43:30;80.78;;;28.92;;
71303;SDS011;59091;47.446;19.148;2023-12-20T08:46:01;78.65;;;30.27;;
71303;SDS011;59091;47.446;19.148;2023-12-20T08:48:27;85.13;;;28.48;;
71303;SDS011;59091;47.446;19.148;2023-12-20T08:50:53;69.45;;;27.67;;
71303;SDS011;59091;47.446;19.148;2023-12-20T08:53:19;69.82;;;29.30;;
71303;SDS011;59091;47.446;19.148;2023-12-20T08:55:44;82.97;;;30.15;;
71303;SDS011;59091;47.446;19.148;2023-12-20T08:58:10;87.28;;;29.80;;
71303;SDS011;59091;47.446;19.148;2023-12-20T09:00:36;95.68;;;30.92;;
71303;SDS011;59091;47.446;19.148;2023-12-20T09:03:01;81.60;;;31.50;;
71303;SDS011;59091;47.446;19.148;2023-12-20T09:05:27;113.40;;;33.03;;
71303;SDS011;59091;47.446;19.148;2023-12-20T09:07:53;81.57;;;31.33;;
71303;SDS011;59091;47.446;19.148;2023-12-20T09:10:19;82.78;;;30.60;;
71303;SDS011;59091;47.446;19.148;2023-12-20T09:12:47;90.07;;;33.45;;
71303;SDS011;59091;47.446;19.148;2023-12-20T09:15:13;88.70;;;33.67;;
71303;SDS011;59091;47.446;19.148;2023-12-20T09:17:40;86.78;;;33.42;;
71303;SDS011;59091;47.446;19.148;2023-12-20T09:20:06;92.25;;;34.88;;
71303;SDS011;59091;47.446;19.148;2023-12-20T09:22:33;93.35;;;35.65;;
71303;SDS011;59091;47.446;19.148;2023-12-20T09:24:59;85.30;;;33.97;;
71303;SDS011;59091;47.446;19.148;2023-12-20T09:27:25;89.25;;;34.00;;
71303;SDS011;59091;47.446;19.148;2023-12-20T09:29:50;77.32;;;32.15;;
71303;SDS011;59091;47.446;19.148;2023-12-20T09:32:16;72.85;;;30.38;;
71303;SDS011;59091;47.446;19.148;2023-12-20T09:34:41;76.63;;;30.42;;
71303;SDS011;59091;47.446;19.148;2023-12-20T09:37:07;80.28;;;30.88;;
71303;SDS011;59091;47.446;19.148;2023-12-20T09:39:32;83.55;;;31.20;;
71303;SDS011;59091;47.446;19.148;2023-12-20T09:42:04;81.25;;;30.88;;
71303;SDS011;59091;47.446;19.148;2023-12-20T09:44:31;81.25;;;29.95;;
71303;SDS011;59091;47.446;19.148;2023-12-20T09:46:59;83.00;;;31.17;;
71303;SDS011;59091;47.446;19.148;2023-12-20T09:49:27;82.03;;;31.92;;
71303;SDS011;59091;47.446;19.148;2023-12-20T09:51:53;81.70;;;31.80;;
71303;SDS011;59091;47.446;19.148;2023-12-20T09:54:19;82.50;;;32.75;;
71303;SDS011;59091;47.446;19.148;2023-12-20T09:56:46;79.03;;;32.53;;
71303;SDS011;59091;47.446;19.148;2023-12-20T09:59:12;72.80;;;29.27;;
71303;SDS011;59091;47.446;19.148;2023-12-20T10:01:38;42.63;;;19.00;;
71303;SDS011;59091;47.446;19.148;2023-12-20T10:04:08;90.85;;;34.53;;
71303;SDS011;59091;47.446;19.148;2023-12-20T10:06:43;88.20;;;33.83;;
71303;SDS011;59091;47.446;19.148;2023-12-20T10:09:09;76.60;;;32.97;;
71303;SDS011;59091;47.446;19.148;2023-12-20T10:11:36;83.13;;;33.40;;
71303;SDS011;59091;47.446;19.148;2023-12-20T10:14:08;84.97;;;34.50;;
71303;SDS011;59091;47.446;19.148;2023-12-20T10:16:36;80.05;;;32.92;;
71303;SDS011;59091;47.446;19.148;2023-12-20T10:19:01;85.18;;;33.15;;
71303;SDS011;59091;47.446;19.148;2023-12-20T10:21:27;88.03;;;33.42;;
71303;SDS011;59091;47.446;19.148;2023-12-20T10:23:56;89.05;;;33.35;;
71303;SDS011;59091;47.446;19.148;2023-12-20T10:26:23;81.75;;;33.55;;
71303;SDS011;59091;47.446;19.148;2023-12-20T10:28:56;82.15;;;34.00;;
71303;SDS011;59091;47.446;19.148;2023-12-20T10:31:31;85.30;;;34.45;;
71303;SDS011;59091;47.446;19.148;2023-12-20T10:34:00;86.28;;;33.55;;
71303;SDS011;59091;47.446;19.148;2023-12-20T10:36:28;85.25;;;33.67;;
71303;SDS011;59091;47.446;19.148;2023-12-20T10:38:56;83.85;;;34.53;;
71303;SDS011;59091;47.446;19.148;2023-12-20T10:41:29;85.03;;;36.65;;
71303;SDS011;59091;47.446;19.148;2023-12-20T10:43:56;83.57;;;33.15;;
71303;SDS011;59091;47.446;19.148;2023-12-20T10:46:24;89.85;;;35.88;;
71303;SDS011;59091;47.446;19.148;2023-12-20T10:48:51;91.63;;;36.17;;
71303;SDS011;59091;47.446;19.148;2023-12-20T10:51:19;95.40;;;37.17;;
71303;SDS011;59091;47.446;19.148;2023-12-20T10:53:46;95.63;;;36.90;;
71303;SDS011;59091;47.446;19.148;2023-12-20T10:56:15;95.75;;;37.58;;
71303;SDS011;59091;47.446;19.148;2023-12-20T10:58:49;93.97;;;37.88;;
71303;SDS011;59091;47.446;19.148;2023-12-20T11:01:16;91.85;;;37.95;;
71303;SDS011;59091;47.446;19.148;2023-12-20T11:03:44;98.40;;;39.35;;
71303;SDS011;59091;47.446;19.148;2023-12-20T11:06:23;88.28;;;35.88;;
71303;SDS011;59091;47.446;19.148;2023-12-20T11:11:46;87.57;;;36.40;;
71303;SDS011;59091;47.446;19.148;2023-12-20T11:14:20;94.38;;;37.70;;
71303;SDS011;59091;47.446;19.148;2023-12-20T11:17:13;93.45;;;37.78;;
71303;SDS011;59091;47.446;19.148;2023-12-20T11:22:21;83.05;;;37.80;;
71303;SDS011;59091;47.446;19.148;2023-12-20T11:24:47;90.35;;;39.78;;
71303;SDS011;59091;47.446;19.148;2023-12-20T11:27:13;92.95;;;37.50;;
71303;SDS011;59091;47.446;19.148;2023-12-20T11:29:39;92.38;;;42.45;;
71303;SDS011;59091;47.446;19.148;2023-12-20T11:34:59;93.80;;;42.33;;
71303;SDS011;59091;47.446;19.148;2023-12-20T11:37:29;98.35;;;42.42;;
71303;SDS011;59091;47.446;19.148;2023-12-20T11:40:08;108.75;;;47.53;;
71303;SDS011;59091;47.446;19.148;2023-12-20T11:42:39;102.25;;;45.55;;
71303;SDS011;59091;47.446;19.148;2023-12-20T11:45:05;100.93;;;44.33;;
71303;SDS011;59091;47.446;19.148;2023-12-20T11:47:34;95.72;;;41.60;;
71303;SDS011;59091;47.446;19.148;2023-12-20T11:50:00;104.05;;;46.13;;
71303;SDS011;59091;47.446;19.148;2023-12-20T11:52:28;96.47;;;43.08;;
71303;SDS011;59091;47.446;19.148;2023-12-20T11:54:54;98.57;;;43.47;;
71303;SDS011;59091;47.446;19.148;2023-12-20T11:57:19;90.95;;;40.60;;
71303;SDS011;59091;47.446;19.148;2023-12-20T11:59:45;89.78;;;39.80;;
71303;SDS011;59091;47.446;19.148;2023-12-20T12:02:11;82.63;;;38.92;;
71303;SDS011;59091;47.446;19.148;2023-12-20T12:04:37;89.70;;;40.35;;
71303;SDS011;59091;47.446;19.148;2023-12-20T12:07:02;86.18;;;40.70;;
71303;SDS011;59091;47.446;19.148;2023-12-20T12:09:28;87.88;;;39.80;;
71303;SDS011;59091;47.446;19.148;2023-12-20T12:11:54;90.68;;;40.15;;
71303;SDS011;59091;47.446;19.148;2023-12-20T12:14:19;87.97;;;41.20;;
71303;SDS011;59091;47.446;19.148;2023-12-20T12:16:45;92.00;;;41.08;;
71303;SDS011;59091;47.446;19.148;2023-12-20T12:19:21;86.65;;;38.65;;
71303;SDS011;59091;47.446;19.148;2023-12-20T12:21:48;82.18;;;38.17;;
71303;SDS011;59091;47.446;19.148;2023-12-20T12:24:14;82.32;;;37.72;;
71303;SDS011;59091;47.446;19.148;2023-12-20T12:26:40;86.50;;;39.42;;
71303;SDS011;59091;47.446;19.148;2023-12-20T12:29:08;87.43;;;41.00;;
71303;SDS011;59091;47.446;19.148;2023-12-20T12:31:34;84.32;;;39.90;;
71303;SDS011;59091;47.446;19.148;2023-12-20T12:34:00;86.90;;;40.53;;
71303;SDS011;59091;47.446;19.148;2023-12-20T12:36:27;85.25;;;40.78;;
71303;SDS011;59091;47.446;19.148;2023-12-20T12:38:55;84.00;;;39.95;;
71303;SDS011;59091;47.446;19.148;2023-12-20T12:41:21;95.32;;;44.97;;
71303;SDS011;59091;47.446;19.148;2023-12-20T12:43:47;100.68;;;47.97;;
71303;SDS011;59091;47.446;19.148;2023-12-20T12:46:12;105.40;;;49.75;;
71303;SDS011;59091;47.446;19.148;2023-12-20T12:48:38;102.18;;;49.28;;
71303;SDS011;59091;47.446;19.148;2023-12-20T12:51:03;96.78;;;46.42;;
71303;SDS011;59091;47.446;19.148;2023-12-20T12:53:29;81.35;;;39.17;;
71303;SDS011;59091;47.446;19.148;2023-12-20T12:55:55;62.92;;;30.85;;
71303;SDS011;59091;47.446;19.148;2023-12-20T12:58:20;44.97;;;20.90;;
71303;SDS011;59091;47.446;19.148;2023-12-20T13:00:47;35.60;;;18.35;;
71303;SDS011;59091;47.446;19.148;2023-12-20T13:03:12;21.45;;;11.80;;
71303;SDS011;59091;47.446;19.148;2023-12-20T13:05:37;17.70;;;10.43;;
71303;SDS011;59091;47.446;19.148;2023-12-20T13:08:03;14.98;;;9.63;;
71303;SDS011;59091;47.446;19.148;2023-12-20T13:10:29;15.73;;;9.75;;
71303;SDS011;59091;47.446;19.148;2023-12-20T13:12:54;16.42;;;9.73;;
71303;SDS011;59091;47.446;19.148;2023-12-20T13:15:20;13.80;;;8.68;;
71303;SDS011;59091;47.446;19.148;2023-12-20T13:17:45;14.95;;;8.88;;
71303;SDS011;59091;47.446;19.148;2023-12-20T13:20:11;15.50;;;9.45;;
71303;SDS011;59091;47.446;19.148;2023-12-20T13:22:37;16.75;;;8.65;;
71303;SDS011;59091;47.446;19.148;2023-12-20T13:25:02;14.25;;;8.93;;
71303;SDS011;59091;47.446;19.148;2023-12-20T13:27:28;16.30;;;8.95;;
71303;SDS011;59091;47.446;19.148;2023-12-20T13:29:53;15.80;;;9.15;;
71303;SDS011;59091;47.446;19.148;2023-12-20T13:32:19;15.57;;;9.20;;
71303;SDS011;59091;47.446;19.148;2023-12-20T13:34:45;17.23;;;9.18;;
71303;SDS011;59091;47.446;19.148;2023-12-20T13:37:10;14.50;;;9.10;;
71303;SDS011;59091;47.446;19.148;2023-12-20T13:39:36;16.15;;;9.38;;
71303;SDS011;59091;47.446;19.148;2023-12-20T13:42:01;15.57;;;10.02;;
71303;SDS011;59091;47.446;19.148;2023-12-20T13:44:27;14.07;;;9.27;;
71303;SDS011;59091;47.446;19.148;2023-12-20T13:46:52;16.77;;;9.80;;
71303;SDS011;59091;47.446;19.148;2023-12-20T13:49:18;16.95;;;9.43;;
71303;SDS011;59091;47.446;19.148;2023-12-20T13:51:43;16.77;;;9.77;;
71303;SDS011;59091;47.446;19.148;2023-12-20T13:54:08;14.82;;;8.98;;
71303;SDS011;59091;47.446;19.148;2023-12-20T13:56:36;18.60;;;9.65;;
71303;SDS011;59091;47.446;19.148;2023-12-20T13:59:01;15.57;;;9.40;;
71303;SDS011;59091;47.446;19.148;2023-12-20T14:01:26;16.23;;;9.65;;
71303;SDS011;59091;47.446;19.148;2023-12-20T14:03:52;13.57;;;8.98;;
71303;SDS011;59091;47.446;19.148;2023-12-20T14:06:17;13.40;;;8.32;;
71303;SDS011;59091;47.446;19.148;2023-12-20T14:08:43;13.35;;;8.55;;
71303;SDS011;59091;47.446;19.148;2023-12-20T14:11:08;14.23;;;9.63;;